Elton, Pennsylvania
Current Conditions -  °F | °C
As of 5:54 PM on Tuesday 25 Nov 2014 (Local Time) from KJST Reporting Station
Clear Clear  
Wind Chill: 34°   Ceiling: Unl
Heat Index: 40°   Visibility: 10mi
Dew Point: 25°   Wind: 9mph
Humidity: 55%   Direction: 270°W
Pressure: 30.04"   Gusts: NA
Location:  40.28°N, 78.8°W
Report Text: KJST 252254Z AUTO 27008KT 10SM CLR 04/M04 A3004 RMK AO2 SLP187 T00441039
Loading
Personal Weather Stations






























Interactive Weather Map New forecast layout! Learn more

10-Day Weather Forecast

Advertisements
Track Severe Weather on mobile